Time;durP1;ratioP1;P1;durP2;ratioP2;P2;SDS_P1;SDS_P2;PMS_P1;PMS_P2;Temp;Humidity;BMP_temperature;BMP_pressure;BME280_temperature;BME280_humidity;BME280_pressure;Samples;Min_cycle;Max_cycle;Signal;HPM_P1;HPM_P2
2022/11/02 00:01:55;;;;;;;;;;;;;;;;;;10586227;28;20252;-61
2022/11/02 00:06:58;;;;;;;;;;;;;;;;;;10586114;28;20281;-61
2022/11/02 00:12:00;;;;;;;;;;;;;;;;;;10585825;28;19924;-62
2022/11/02 00:17:04;;;;;;;;;;;;;;;;;;10586292;28;19924;-62
2022/11/02 00:22:06;;;;;;;;;;;;;;;;;;10586172;28;19977;-61
2022/11/02 00:27:08;;;;;;;;;;;;;;;;;;10585901;28;19927;-62
2022/11/02 00:32:10;;;;;;;;;;;;;;;;;;10584836;28;19993;-61
2022/11/02 00:37:12;;;;;;;;;;;;;;;;;;10567417;28;19923;-61
2022/11/02 00:42:15;;;;;;;;;;;;;;;;;;10585240;28;19931;-61
2022/11/02 00:47:17;;;;;;;;;;;;;;;;;;10584410;28;19924;-62
2022/11/02 00:52:19;;;;;;;;;;;;;;;;;;10583251;28;20436;-61
2022/11/02 00:57:21;;;;;;;;;;;;;;;;;;10584630;28;19924;-61
2022/11/02 01:02:23;;;;;;;;;;;;;;;;;;10584057;28;20386;-61
2022/11/02 01:07:25;;;;;;;;;;;;;;;;;;10583643;28;19979;-61
2022/11/02 01:12:27;;;;;;;;;;;;;;;;;;10583999;28;19924;-61
2022/11/02 01:17:29;;;;;;;;;;;;;;;;;;10583198;28;20400;-61
2022/11/02 01:22:31;;;;;;;;;;;;;;;;;;10583041;28;19993;-61
2022/11/02 01:27:33;;;;;;;;;;;;;;;;;;10583555;28;19928;-61
2022/11/02 01:32:35;;;;;;;;;;;;;;;;;;10583016;28;19924;-61
2022/11/02 01:37:37;;;;;;;;;;;;;;;;;;10582603;28;20432;-61
2022/11/02 01:42:39;;;;;;;;;;;;;;;;;;10583125;28;19969;-61
2022/11/02 01:47:41;;;;;;;;;;;;;;;;;;10582964;28;19928;-61
2022/11/02 01:52:43;;;;;;;;;;;;;;;;;;10582142;28;19927;-61
2022/11/02 01:57:45;;;;;;;;;;;;;;;;;;10582766;28;19969;-61
2022/11/02 02:02:47;;;;;;;;;;;;;;;;;;10582465;28;19977;-61
2022/11/02 02:07:50;;;;;;;;;;;;;;;;;;10582591;28;20018;-61
2022/11/02 02:12:52;;;;;;;;;;;;;;;;;;10581714;28;19928;-61
2022/11/02 02:17:54;;;;;;;;;;;;;;;;;;10582369;28;19984;-61
2022/11/02 02:22:56;;;;;;;;;;;;;;;;;;10581679;28;19978;-61
2022/11/02 02:27:58;;;;;;;;;;;;;;;;;;10582223;28;19924;-61
2022/11/02 02:33:00;;;;;;;;;;;;;;;;;;10581701;28;19969;-60
2022/11/02 02:38:02;;;;;;;;;;;;;;;;;;10581349;28;20328;-61
2022/11/02 02:43:04;;;;;;;;;;;;;;;;;;10581828;28;19923;-61
2022/11/02 02:48:06;;;;;;;;;;;;;;;;;;10581120;28;20367;-61
2022/11/02 02:53:09;;;;;;;;;;;;;;;;;;10562918;28;20014;-60
2022/11/02 02:58:11;;;;;;;;;;;;;;;;;;10581545;28;19928;-60
2022/11/02 03:03:13;;;;;;;;;;;;;;;;;;10581295;28;19927;-60
2022/11/02 03:08:15;;;;;;;;;;;;;;;;;;10580669;28;19923;-61
2022/11/02 03:13:17;;;;;;;;;;;;;;;;;;10583091;28;19928;-62
2022/11/02 03:18:19;;;;;;;;;;;;;;;;;;10588015;28;19924;-61
2022/11/02 03:23:21;;;;;;;;;;;;;;;;;;10588563;28;19924;-61
2022/11/02 03:28:23;;;;;;;;;;;;;;;;;;10588286;28;19924;-61
2022/11/02 03:33:25;;;;;;;;;;;;;;;;;;10587197;28;19924;-61
2022/11/02 03:38:27;;;;;;;;;;;;;;;;;;10587888;28;19924;-61
2022/11/02 03:43:29;;;;;;;;;;;;;;;;;;10587083;28;20287;-61
2022/11/02 03:48:31;;;;;;;;;;;;;;;;;;10569465;28;19924;-61
2022/11/02 03:53:33;;;;;;;;;;;;;;;;;;10586669;28;20366;-61
2022/11/02 03:58:35;;;;;;;;;;;;;;;;;;10586406;28;20290;-61
2022/11/02 04:03:37;;;;;;;;;;;;;;;;;;10586940;28;19928;-61
2022/11/02 04:08:39;;;;;;;;;;;;;;;;;;10586732;28;19928;-61
2022/11/02 04:29:44;;;;;;;;;;;;;;;;;;10585875;28;19985;-61
2022/11/02 04:34:46;;;;;;;;;;;;;;;;;;10584724;28;20379;-61
2022/11/02 04:39:48;;;;;;;;;;;;;;;;;;10585450;28;19924;-61
2022/11/02 04:44:50;;;;;;;;;;;;;;;;;;10584823;28;19924;-60
2022/11/02 04:49:52;;;;;;;;;;;;;;;;;;10584389;28;20283;-61
2022/11/02 04:54:54;;;;;;;;;;;;;;;;;;10584755;28;19928;-61
2022/11/02 04:59:56;;;;;;;;;;;;;;;;;;10584598;28;19924;-61
2022/11/02 05:04:58;;;;;;;;;;;;;;;;;;10584177;28;19927;-61
2022/11/02 05:10:00;;;;;;;;;;;;;;;;;;10583630;28;19923;-61
2022/11/02 05:15:03;;;;;;;;;;;;;;;;;;10583296;28;19923;-61
2022/11/02 05:20:07;;;;;;;;;;;;;;;;;;10583287;28;20332;-61
2022/11/02 05:25:09;;;;;;;;;;;;;;;;;;10582988;28;20287;-61
2022/11/02 05:30:11;;;;;;;;;;;;;;;;;;10565461;28;19924;-61
2022/11/02 05:35:13;;;;;;;;;;;;;;;;;;10582116;28;19927;-61
2022/11/02 05:40:15;;;;;;;;;;;;;;;;;;10583171;28;19977;-61
2022/11/02 05:45:17;;;;;;;;;;;;;;;;;;10582528;28;19949;-60
2022/11/02 05:50:22;;;;;;;;;;;;;;;;;;10582934;28;19923;-61
2022/11/02 05:55:25;;;;;;;;;;;;;;;;;;10582109;28;19924;-60
2022/11/02 06:00:27;;;;;;;;;;;;;;;;;;10582746;28;19973;-61
2022/11/02 06:05:29;;;;;;;;;;;;;;;;;;10582599;28;19924;-61
2022/11/02 06:10:31;;;;;;;;;;;;;;;;;;10581914;28;20286;-61
2022/11/02 06:15:33;;;;;;;;;;;;;;;;;;10581611;28;19977;-61
2022/11/02 06:20:35;;;;;;;;;;;;;;;;;;10582267;28;19924;-60
2022/11/02 06:25:37;;;;;;;;;;;;;;;;;;10581487;28;19969;-61
2022/11/02 06:30:39;;;;;;;;;;;;;;;;;;10581548;28;20320;-60
2022/11/02 06:35:41;;;;;;;;;;;;;;;;;;10581373;28;19924;-61
2022/11/02 06:40:43;;;;;;;;;;;;;;;;;;10581272;28;20424;-60
2022/11/02 06:45:45;;;;;;;;;;;;;;;;;;10581783;28;19969;-61
2022/11/02 06:50:47;;;;;;;;;;;;;;;;;;10510163;22;19928;-69
2022/11/02 06:55:49;;;;;;;;;;;;;;;;;;10505475;28;19978;-69
2022/11/02 07:00:51;;;;;;;;;;;;;;;;;;10505308;28;19925;-66
2022/11/02 07:05:53;;;;;;;;;;;;;;;;;;10504974;28;19939;-66
2022/11/02 07:10:55;;;;;;;;;;;;;;;;;;10504335;28;20318;-66
2022/11/02 07:15:58;;;;;;;;;;;;;;;;;;10502221;28;19924;-66
2022/11/02 07:21:00;;;;;;;;;;;;;;;;;;10504475;28;19925;-66
2022/11/02 07:26:02;;;;;;;;;;;;;;;;;;10503800;28;19971;-66
2022/11/02 07:31:04;;;;;;;;;;;;;;;;;;10503601;28;19924;-66
2022/11/02 07:36:06;;;;;;;;;;;;;;;;;;10503980;28;19971;-66
2022/11/02 07:41:08;;;;;;;;;;;;;;;;;;10503242;28;19924;-66
2022/11/02 07:46:10;;;;;;;;;;;;;;;;;;10503048;28;19958;-66
2022/11/02 07:51:12;;;;;;;;;;;;;;;;;;10502689;28;19985;-66
2022/11/02 07:56:14;;;;;;;;;;;;;;;;;;10502574;28;19951;-66
2022/11/02 08:01:16;;;;;;;;;;;;;;;;;;10502601;28;19970;-66
2022/11/02 08:06:19;;;;;;;;;;;;;;;;;;10502205;28;20283;-65
2022/11/02 08:11:21;;;;;;;;;;;;;;;;;;10502629;28;19978;-66
2022/11/02 08:16:23;;;;;;;;;;;;;;;;;;10502337;28;19970;-67
2022/11/02 08:21:25;;;;;;;;;;;;;;;;;;10501608;28;19989;-66
2022/11/02 08:26:27;;;;;;;;;;;;;;;;;;10502017;28;19924;-66
2022/11/02 08:31:29;;;;;;;;;;;;;;;;;;10501819;28;20041;-66
2022/11/02 08:36:31;;;;;;;;;;;;;;;;;;10501537;28;19986;-67
2022/11/02 08:41:33;;;;;;;;;;;;;;;;;;10501339;28;19929;-67
2022/11/02 08:46:35;;;;;;;;;;;;;;;;;;10500310;28;19932;-66
2022/11/02 08:51:37;;;;;;;;;;;;;;;;;;10499852;28;19951;-67
2022/11/02 08:56:39;;;;;;;;;;;;;;;;;;10500065;28;20436;-67
2022/11/02 09:01:41;;;;;;;;;;;;;;;;;;10500519;28;19978;-67
2022/11/02 09:06:44;;;;;;;;;;;;;;;;;;10500354;28;19932;-67
2022/11/02 09:11:46;;;;;;;;;;;;;;;;;;10499365;28;19932;-67
2022/11/02 09:16:48;;;;;;;;;;;;;;;;;;10499313;28;20436;-67
2022/11/02 09:21:50;;;;;;;;;;;;;;;;;;10499830;28;19925;-67
2022/11/02 09:26:52;;;;;;;;;;;;;;;;;;10499654;28;19933;-67
2022/11/02 09:31:54;;;;;;;;;;;;;;;;;;10498867;28;20380;-67
2022/11/02 09:36:56;;;;;;;;;;;;;;;;;;10499284;28;19929;-67
2022/11/02 09:41:58;;;;;;;;;;;;;;;;;;10499271;28;19924;-68
2022/11/02 09:47:01;;;;;;;;;;;;;;;;;;10498301;28;20280;-67
2022/11/02 09:52:23;;;;;;;;;;;;;;;;;;10498396;28;20339;-67
2022/11/02 09:57:25;;;;;;;;;;;;;;;;;;10498857;28;19962;-68
2022/11/02 10:02:27;;;;;;;;;;;;;;;;;;10498864;28;19925;-68
2022/11/02 10:07:29;;;;;;;;;;;;;;;;;;10498750;28;19974;-68
2022/11/02 10:12:31;;;;;;;;;;;;;;;;;;10498655;28;19924;-68
2022/11/02 10:17:33;;;;;;;;;;;;;;;;;;10498382;28;19974;-68
2022/11/02 10:22:35;;;;;;;;;;;;;;;;;;10500334;28;20082;-68
2022/11/02 10:27:37;;;;;;;;;;;;;;;;;;10506752;28;19925;-68
2022/11/02 10:32:40;;;;;;;;;;;;;;;;;;10498400;28;19925;-68
2022/11/02 10:37:47;;;;;;;;;;;;;;;;;;10506321;28;19925;-68
2022/11/02 10:42:49;;;;;;;;;;;;;;;;;;10503866;28;20309;-68
2022/11/02 10:47:51;;;;;;;;;;;;;;;;;;10505555;28;19974;-68
2022/11/02 10:52:54;;;;;;;;;;;;;;;;;;10505656;28;19974;-68
2022/11/02 10:57:57;;;;;;;;;;;;;;;;;;10505596;28;19924;-68
2022/11/02 11:02:59;;;;;;;;;;;;;;;;;;10505247;28;19932;-68
2022/11/02 11:08:02;;;;;;;;;;;;;;;;;;10504607;28;20425;-68
2022/11/02 11:13:04;;;;;;;;;;;;;;;;;;10504305;28;20279;-68
2022/11/02 11:18:06;;;;;;;;;;;;;;;;;;10504647;28;19932;-68
2022/11/02 11:23:28;;;;;;;;;;;;;;;;;;10503810;28;20379;-68
2022/11/02 11:28:30;;;;;;;;;;;;;;;;;;10503752;28;19970;-68
2022/11/02 11:33:32;;;;;;;;;;;;;;;;;;10502946;28;19924;-68
2022/11/02 11:38:34;;;;;;;;;;;;;;;;;;10503319;28;20326;-68
2022/11/02 11:43:37;;;;;;;;;;;;;;;;;;10503835;28;19982;-68
2022/11/02 11:48:39;;;;;;;;;;;;;;;;;;10503032;28;19924;-68
2022/11/02 11:53:41;;;;;;;;;;;;;;;;;;10502619;28;19924;-68
2022/11/02 11:58:43;;;;;;;;;;;;;;;;;;10503240;28;19924;-68
2022/11/02 12:03:49;;;;;;;;;;;;;;;;;;10501868;28;19971;-68
2022/11/02 12:08:51;;;;;;;;;;;;;;;;;;10463646;28;19925;-68
2022/11/02 12:13:53;;;;;;;;;;;;;;;;;;10461207;28;19929;-67
2022/11/02 12:18:55;;;;;;;;;;;;;;;;;;10460606;28;19925;-67
2022/11/02 12:23:57;;;;;;;;;;;;;;;;;;10460704;28;19971;-68
2022/11/02 12:28:59;;;;;;;;;;;;;;;;;;10460587;28;19970;-67
2022/11/02 12:34:01;;;;;;;;;;;;;;;;;;10460332;28;19925;-67
2022/11/02 12:39:03;;;;;;;;;;;;;;;;;;10459489;28;19929;-67
2022/11/02 12:44:05;;;;;;;;;;;;;;;;;;10459318;28;19925;-68
2022/11/02 12:49:07;;;;;;;;;;;;;;;;;;10458687;28;20399;-69
2022/11/02 12:54:10;;;;;;;;;;;;;;;;;;10459500;28;19928;-68
2022/11/02 12:59:12;;;;;;;;;;;;;;;;;;10459370;28;19925;-69
2022/11/02 13:04:14;;;;;;;;;;;;;;;;;;10459201;28;19951;-68
2022/11/02 13:09:16;;;;;;;;;;;;;;;;;;10458298;28;19954;-67
2022/11/02 13:14:18;;;;;;;;;;;;;;;;;;10458092;28;19983;-67
2022/11/02 13:19:20;;;;;;;;;;;;;;;;;;10458580;28;19978;-68
2022/11/02 13:24:22;;;;;;;;;;;;;;;;;;10457399;28;19928;-67
2022/11/02 13:29:27;;;;;;;;;;;;;;;;;;10458285;28;19960;-68
2022/11/02 13:34:29;;;;;;;;;;;;;;;;;;10458201;28;19925;-68
2022/11/02 13:39:31;;;;;;;;;;;;;;;;;;10457720;28;19951;-67
2022/11/02 13:44:33;;;;;;;;;;;;;;;;;;10457145;28;19951;-68
2022/11/02 13:49:35;;;;;;;;;;;;;;;;;;10456835;28;20276;-67
2022/11/02 13:54:37;;;;;;;;;;;;;;;;;;10457047;28;19932;-68
2022/11/02 13:59:39;;;;;;;;;;;;;;;;;;10457040;28;19981;-68
2022/11/02 14:04:44;;;;;;;;;;;;;;;;;;10456880;28;19925;-68
2022/11/02 14:09:47;;;;;;;;;;;;;;;;;;10457065;28;19925;-68
2022/11/02 14:14:49;;;;;;;;;;;;;;;;;;10456459;28;19947;-68
2022/11/02 14:19:51;;;;;;;;;;;;;;;;;;10457052;28;19925;-68
2022/11/02 14:24:53;;;;;;;;;;;;;;;;;;10456207;28;20264;-69
2022/11/02 14:29:55;;;;;;;;;;;;;;;;;;10455969;28;20418;-68
2022/11/02 14:34:57;;;;;;;;;;;;;;;;;;10456686;28;19932;-68
2022/11/02 14:39:59;;;;;;;;;;;;;;;;;;10456597;28;19924;-69
2022/11/02 14:45:01;;;;;;;;;;;;;;;;;;10455909;28;20322;-68
2022/11/02 14:50:03;;;;;;;;;;;;;;;;;;10455750;28;19931;-68
2022/11/02 14:55:29;;;;;;;;;;;;;;;;;;10456336;28;20355;-68
2022/11/02 15:00:31;;;;;;;;;;;;;;;;;;10455283;28;19925;-68
2022/11/02 15:05:33;;;;;;;;;;;;;;;;;;10456105;28;19971;-68
2022/11/02 15:10:35;;;;;;;;;;;;;;;;;;10459809;28;19925;-68
2022/11/02 15:15:37;;;;;;;;;;;;;;;;;;10463126;28;20395;-68
2022/11/02 15:20:39;;;;;;;;;;;;;;;;;;10462477;28;19925;-69
2022/11/02 15:25:46;;;;;;;;;;;;;;;;;;10463145;28;19951;-72
2022/11/02 15:30:49;;;;;;;;;;;;;;;;;;10462952;28;19929;-65
2022/11/02 15:35:51;;;;;;;;;;;;;;;;;;10462007;28;20405;-70
2022/11/02 15:40:53;;;;;;;;;;;;;;;;;;10462570;28;19925;-70
2022/11/02 15:45:58;;;;;;;;;;;;;;;;;;10462377;28;19925;-70
2022/11/02 15:51:05;;;;;;;;;;;;;;;;;;10461368;28;20111;-70
2022/11/02 15:56:07;;;;;;;;;;;;;;;;;;10461919;28;19929;-70
2022/11/02 16:01:09;;;;;;;;;;;;;;;;;;10461124;28;19951;-70
2022/11/02 16:06:12;;;;;;;;;;;;;;;;;;10460908;28;19925;-70
2022/11/02 16:11:16;;;;;;;;;;;;;;;;;;10461324;28;20046;-70
2022/11/02 16:16:18;;;;;;;;;;;;;;;;;;10461157;28;19929;-70
2022/11/02 16:21:20;;;;;;;;;;;;;;;;;;10460722;28;19979;-70
2022/11/02 16:26:22;;;;;;;;;;;;;;;;;;10460215;28;19924;-69
2022/11/02 16:31:29;;;;;;;;;;;;;;;;;;10460587;28;19925;-70
2022/11/02 16:36:31;;;;;;;;;;;;;;;;;;10459753;28;19994;-70
2022/11/02 16:41:33;;;;;;;;;;;;;;;;;;10460158;28;19974;-70
2022/11/02 16:46:35;;;;;;;;;;;;;;;;;;10459331;28;19924;-69
2022/11/02 16:51:37;;;;;;;;;;;;;;;;;;10459036;28;19978;-69
2022/11/02 16:56:39;;;;;;;;;;;;;;;;;;10459288;28;19952;-70
2022/11/02 17:01:43;;;;;;;;;;;;;;;;;;10458761;28;19994;-69
2022/11/02 17:06:45;;;;;;;;;;;;;;;;;;10459155;28;19925;-69
2022/11/02 17:11:47;;;;;;;;;;;;;;;;;;10459495;28;19969;-70
2022/11/02 17:16:49;;;;;;;;;;;;;;;;;;10458064;28;19991;-69
2022/11/02 17:21:51;;;;;;;;;;;;;;;;;;10457989;28;19925;-69
2022/11/02 17:26:53;;;;;;;;;;;;;;;;;;10457825;28;19924;-69
2022/11/02 17:31:56;;;;;;;;;;;;;;;;;;10457604;28;19925;-70
2022/11/02 17:36:58;;;;;;;;;;;;;;;;;;10456887;28;19976;-70
2022/11/02 17:47:21;;;;;;;;;;;;;;;;;;10457062;28;19925;-69
2022/11/02 17:52:23;;;;;;;;;;;;;;;;;;10457246;28;20388;-69
2022/11/02 17:57:27;;;;;;;;;;;;;;;;;;10456216;28;21298;-69
2022/11/02 18:02:29;;;;;;;;;;;;;;;;;;10456759;28;20330;-69
2022/11/02 18:07:31;;;;;;;;;;;;;;;;;;10456704;28;19928;-70
2022/11/02 18:12:33;;;;;;;;;;;;;;;;;;10454735;28;20441;-69
2022/11/02 18:17:35;;;;;;;;;;;;;;;;;;10456631;28;19975;-69
2022/11/02 18:22:37;;;;;;;;;;;;;;;;;;10457018;28;19929;-70
2022/11/02 18:27:39;;;;;;;;;;;;;;;;;;10456633;28;20320;-69
2022/11/02 18:32:41;;;;;;;;;;;;;;;;;;10456271;28;19924;-69
2022/11/02 18:37:43;;;;;;;;;;;;;;;;;;10456684;28;19925;-70
2022/11/02 18:42:45;;;;;;;;;;;;;;;;;;10457120;28;19932;-69
2022/11/02 18:47:48;;;;;;;;;;;;;;;;;;10464382;28;19929;-70
2022/11/02 18:52:50;;;;;;;;;;;;;;;;;;10464462;28;19928;-69
2022/11/02 18:57:52;;;;;;;;;;;;;;;;;;10462429;28;20392;-70
2022/11/02 19:02:54;;;;;;;;;;;;;;;;;;10485549;23;20365;-68
2022/11/02 19:13:17;;;;;;;;;;;;;;;;;;10505118;28;19924;-68
2022/11/02 19:18:19;;;;;;;;;;;;;;;;;;10504812;28;19982;-68
2022/11/02 19:23:21;;;;;;;;;;;;;;;;;;10504077;28;20371;-69
2022/11/02 19:28:23;;;;;;;;;;;;;;;;;;10504510;28;19951;-68
2022/11/02 19:33:25;;;;;;;;;;;;;;;;;;10503703;28;19974;-68
2022/11/02 19:38:27;;;;;;;;;;;;;;;;;;10503466;28;19932;-68
2022/11/02 19:43:29;;;;;;;;;;;;;;;;;;10503371;28;19928;-68
2022/11/02 19:48:31;;;;;;;;;;;;;;;;;;10503767;28;19924;-69
2022/11/02 19:53:33;;;;;;;;;;;;;;;;;;10503569;28;19954;-69
2022/11/02 19:58:35;;;;;;;;;;;;;;;;;;10502790;28;19925;-68
2022/11/02 20:03:37;;;;;;;;;;;;;;;;;;10502445;28;19947;-68
2022/11/02 20:08:39;;;;;;;;;;;;;;;;;;10502394;28;20379;-68
2022/11/02 20:13:41;;;;;;;;;;;;;;;;;;10502805;28;19925;-69
2022/11/02 20:18:44;;;;;;;;;;;;;;;;;;10502317;28;19925;-69
2022/11/02 20:23:46;;;;;;;;;;;;;;;;;;10502586;28;19928;-69
2022/11/02 20:28:48;;;;;;;;;;;;;;;;;;10502129;28;19924;-68
2022/11/02 20:33:50;;;;;;;;;;;;;;;;;;10501913;28;19928;-68
2022/11/02 20:38:53;;;;;;;;;;;;;;;;;;10501636;28;19970;-69
2022/11/02 20:43:55;;;;;;;;;;;;;;;;;;10501527;28;19925;-68
2022/11/02 20:48:59;;;;;;;;;;;;;;;;;;10501315;28;19925;-68
2022/11/02 20:54:09;;;;;;;;;;;;;;;;;;10501187;28;20003;-69
2022/11/02 20:59:11;;;;;;;;;;;;;;;;;;10500206;28;20390;-68
2022/11/02 21:04:13;;;;;;;;;;;;;;;;;;10499862;28;20337;-68
2022/11/02 21:09:21;;;;;;;;;;;;;;;;;;10499603;28;19925;-69
2022/11/02 21:14:23;;;;;;;;;;;;;;;;;;10499678;28;20333;-69
2022/11/02 21:19:25;;;;;;;;;;;;;;;;;;10500085;28;19982;-68
2022/11/02 21:24:27;;;;;;;;;;;;;;;;;;10499560;28;20306;-68
2022/11/02 21:29:29;;;;;;;;;;;;;;;;;;10499768;28;19932;-68
2022/11/02 21:34:31;;;;;;;;;;;;;;;;;;10498986;28;20329;-69
2022/11/02 21:39:33;;;;;;;;;;;;;;;;;;10499453;28;19974;-69
2022/11/02 21:44:36;;;;;;;;;;;;;;;;;;10499381;28;19924;-69
2022/11/02 21:49:38;;;;;;;;;;;;;;;;;;10499219;28;19970;-69
2022/11/02 21:54:40;;;;;;;;;;;;;;;;;;10498492;28;19974;-68
2022/11/02 21:59:42;;;;;;;;;;;;;;;;;;10498930;28;19929;-68
2022/11/02 22:04:44;;;;;;;;;;;;;;;;;;10497900;28;20367;-68
2022/11/02 22:09:46;;;;;;;;;;;;;;;;;;10498156;28;20287;-68
2022/11/02 22:14:48;;;;;;;;;;;;;;;;;;10496672;28;19924;-69
2022/11/02 22:19:50;;;;;;;;;;;;;;;;;;10502536;28;20271;-69
2022/11/02 22:24:52;;;;;;;;;;;;;;;;;;10507046;28;19924;-68
2022/11/02 22:29:54;;;;;;;;;;;;;;;;;;10506948;28;19974;-68
2022/11/02 22:34:56;;;;;;;;;;;;;;;;;;10506559;28;19973;-69
2022/11/02 22:39:58;;;;;;;;;;;;;;;;;;10505804;28;20257;-69
2022/11/02 22:45:00;;;;;;;;;;;;;;;;;;10506207;28;19982;-68
2022/11/02 22:50:02;;;;;;;;;;;;;;;;;;10505420;28;20363;-69
2022/11/02 22:55:04;;;;;;;;;;;;;;;;;;10504616;28;20038;-68
2022/11/02 23:00:07;;;;;;;;;;;;;;;;;;10505052;28;19924;-69
2022/11/02 23:05:08;;;;;;;;;;;;;;;;;;10504631;28;19986;-69
2022/11/02 23:11:20;;;;;;;;;;;;;;;;;;10505237;28;19932;-69
2022/11/02 23:15:33;;;;;;;;;;;;;;;;;;10504404;28;19925;-68
2022/11/02 23:20:35;;;;;;;;;;;;;;;;;;10504785;28;19977;-68
2022/11/02 23:25:37;;;;;;;;;;;;;;;;;;10502879;28;20287;-68
2022/11/02 23:36:14;;;;;;;;;;;;;;;;;;10503537;28;20330;-68
2022/11/02 23:41:16;;;;;;;;;;;;;;;;;;10504138;28;19924;-67
2022/11/02 23:46:18;;;;;;;;;;;;;;;;;;10503858;28;19978;-68
2022/11/02 23:56:43;;;;;;;;;;;;;;;;;;10503562;28;19929;-69
